createdAt,value
2022-11-10T00:04:20.027Z,25.73
2022-11-10T00:09:24.822Z,30.60
2022-11-10T00:14:45.899Z,28.55
2022-11-10T00:19:49.497Z,27.50
2022-11-10T00:24:54.217Z,28.60
2022-11-10T00:29:57.629Z,33.70
2022-11-10T00:35:01.349Z,27.55
2022-11-10T00:40:07.102Z,29.90
2022-11-10T00:45:11.407Z,28.50
2022-11-10T00:50:15.466Z,28.35
2022-11-10T00:55:20.500Z,30.90
2022-11-10T01:00:24.012Z,27.70
2022-11-10T01:05:27.461Z,28.15
2022-11-10T01:10:32.276Z,27.45
2022-11-10T01:15:39.324Z,27.17
2022-11-10T01:20:42.882Z,27.63
2022-11-10T01:25:47.619Z,26.17
2022-11-10T01:30:50.970Z,26.63
2022-11-10T01:35:54.727Z,23.90
2022-11-10T01:40:59.689Z,25.50
2022-11-10T01:46:04.523Z,25.50
2022-11-10T01:51:13.263Z,25.80
2022-11-10T01:56:19.210Z,29.20
2022-11-10T02:01:22.763Z,26.15
2022-11-10T02:06:30.602Z,25.83
2022-11-10T02:11:36.802Z,27.25
2022-11-10T02:16:41.159Z,26.23
2022-11-10T02:21:46.200Z,22.38
2022-11-10T02:26:53.658Z,25.65
2022-11-10T02:31:57.000Z,23.95
2022-11-10T02:37:01.724Z,24.45
2022-11-10T02:42:10.348Z,23.67
2022-11-10T02:47:13.805Z,20.70
2022-11-10T02:52:18.903Z,23.40
2022-11-10T02:57:22.250Z,23.23
2022-11-10T03:02:29.796Z,21.42
2022-11-10T03:07:37.043Z,22.75
2022-11-10T03:12:40.448Z,21.67
2022-11-10T03:17:43.830Z,20.80
2022-11-10T03:22:48.894Z,20.40
2022-11-10T03:27:52.265Z,23.45
2022-11-10T03:32:55.951Z,22.38
2022-11-10T03:38:01.302Z,22.00
2022-11-10T03:43:04.750Z,23.83
2022-11-10T03:48:08.167Z,20.42
2022-11-10T03:53:13.369Z,24.00
2022-11-10T03:58:16.736Z,23.02
2022-11-10T04:03:20.505Z,20.65
2022-11-10T04:08:42.835Z,22.70
2022-11-10T04:14:12.168Z,21.17
2022-11-10T04:19:15.656Z,16.35
2022-11-10T04:24:20.564Z,16.50
2022-11-10T04:29:24.025Z,16.73
2022-11-10T04:34:27.638Z,22.58
2022-11-10T04:39:32.359Z,20.17
2022-11-10T04:44:36.030Z,17.63
2022-11-10T04:49:39.363Z,19.55
2022-11-10T04:54:44.076Z,16.85
2022-11-10T04:59:47.595Z,17.40
2022-11-10T05:04:51.003Z,19.50
2022-11-10T05:09:56.104Z,19.20
2022-11-10T05:14:59.776Z,19.40
2022-11-10T05:20:03.610Z,17.23
2022-11-10T05:25:09.214Z,18.85
2022-11-10T05:30:12.981Z,14.98
2022-11-10T05:35:16.479Z,15.35
2022-11-10T05:40:21.330Z,13.98
2022-11-10T05:45:26.647Z,14.40
2022-11-10T05:50:30.340Z,12.52
2022-11-10T05:55:35.287Z,11.95
2022-11-10T06:00:38.796Z,13.32
2022-11-10T06:05:42.187Z,12.77
2022-11-10T06:10:47.195Z,12.77
2022-11-10T06:15:50.845Z,14.15
2022-11-10T06:20:54.294Z,11.98
2022-11-10T06:25:59.004Z,13.65
2022-11-10T06:31:02.418Z,12.52
2022-11-10T06:36:06.125Z,10.93
2022-11-10T06:41:11.125Z,10.50
2022-11-10T06:46:14.601Z,11.13
2022-11-10T06:51:19.312Z,11.25
2022-11-10T06:56:24.553Z,9.48
2022-11-10T07:01:28.580Z,13.43
2022-11-10T07:06:32.183Z,11.85
2022-11-10T07:11:37.370Z,12.10
2022-11-10T07:16:40.774Z,9.63
2022-11-10T07:21:44.147Z,9.57
2022-11-10T07:26:49.112Z,9.30
2022-11-10T07:31:52.627Z,6.88
2022-11-10T07:36:56.005Z,9.05
2022-11-10T07:42:00.722Z,7.93
2022-11-10T07:47:04.361Z,10.77
2022-11-10T07:52:07.689Z,10.18
2022-11-10T07:57:12.644Z,8.23
2022-11-10T08:02:16.052Z,8.75
2022-11-10T08:07:19.956Z,15.18
2022-11-10T08:12:26.693Z,9.27
2022-11-10T08:17:33.183Z,9.63
2022-11-10T08:22:36.568Z,9.77
2022-11-10T08:27:41.273Z,10.52
2022-11-10T08:32:44.624Z,11.75
2022-11-10T08:37:48.008Z,11.18
2022-11-10T08:42:59.578Z,7.97
2022-11-10T08:48:05.297Z,12.48
2022-11-10T08:53:11.587Z,8.82
2022-11-10T08:58:18.180Z,12.10
2022-11-10T09:03:23.852Z,8.77
2022-11-10T09:08:27.642Z,12.27
2022-11-10T09:13:32.913Z,11.05
2022-11-10T09:18:36.615Z,8.20
2022-11-10T09:23:40.079Z,10.02
2022-11-10T09:28:44.833Z,12.50
2022-11-10T09:33:48.182Z,7.47
2022-11-10T09:38:54.348Z,8.70
2022-11-10T09:44:04.969Z,7.43
2022-11-10T09:49:19.338Z,8.43
2022-11-10T09:54:34.173Z,6.97
2022-11-10T09:59:39.155Z,8.85
2022-11-10T10:05:02.869Z,9.20
2022-11-10T10:10:17.605Z,7.85
2022-11-10T10:15:31.945Z,6.75
2022-11-10T10:20:43.833Z,6.80
2022-11-10T10:25:47.729Z,6.85
2022-11-10T10:30:52.605Z,9.30
2022-11-10T10:35:56.507Z,5.05
2022-11-10T10:41:04.407Z,5.18
2022-11-10T10:46:10.953Z,7.50
2022-11-10T10:51:29.782Z,7.57
2022-11-10T10:56:34.336Z,6.97
2022-11-10T11:01:41.139Z,5.85
2022-11-10T11:06:57.221Z,7.20
2022-11-10T11:12:03.586Z,8.77
2022-11-10T11:17:15.177Z,6.63
2022-11-10T11:22:43.760Z,7.47
2022-11-10T11:27:55.763Z,8.77
2022-11-10T11:33:21.415Z,8.30
2022-11-10T11:38:32.214Z,12.18
2022-11-10T11:43:57.978Z,10.95
2022-11-10T11:49:25.707Z,6.82
2022-11-10T11:54:37.054Z,5.55
2022-11-10T12:00:00.658Z,6.65
2022-11-10T12:05:18.522Z,8.48
2022-11-10T12:10:31.559Z,11.73
2022-11-10T12:15:45.180Z,7.75
2022-11-10T12:21:04.110Z,7.43
2022-11-10T12:26:17.614Z,7.82
2022-11-10T12:31:23.847Z,6.07
2022-11-10T12:36:31.516Z,9.02
2022-11-10T12:41:40.449Z,5.25
2022-11-10T12:46:50.951Z,5.40
2022-11-10T12:52:03.976Z,8.93
2022-11-10T12:57:12.380Z,7.93
2022-11-10T13:02:24.790Z,5.32
2022-11-10T13:07:30.097Z,8.95
2022-11-10T13:12:34.081Z,6.50
2022-11-10T13:17:55.051Z,8.80
2022-11-10T13:22:59.907Z,6.75
2022-11-10T13:28:03.562Z,4.57
2022-11-10T13:33:35.302Z,10.45
2022-11-10T13:38:41.411Z,8.00
2022-11-10T13:43:50.411Z,6.32
2022-11-10T13:49:19.305Z,5.75
2022-11-10T13:55:14.748Z,7.57
2022-11-10T14:00:29.091Z,4.45
2022-11-10T14:06:08.650Z,7.20
2022-11-10T14:11:23.711Z,5.63
2022-11-10T14:16:31.459Z,4.90
2022-11-10T14:21:43.598Z,4.55
2022-11-10T14:26:53.020Z,8.03
2022-11-10T14:31:59.316Z,5.07
2022-11-10T14:37:04.484Z,6.38
2022-11-10T14:42:15.412Z,6.75
2022-11-10T14:47:27.529Z,4.35
2022-11-10T14:52:31.326Z,5.55
2022-11-10T14:57:37.698Z,5.72
2022-11-10T15:02:41.716Z,6.72
2022-11-10T15:07:46.921Z,5.30
